KWWR/WWR METAR and TAF weather

Enter ICAO airport designator
Station Type Date Time Source
KWWR METAR 2024/02/26 17:55 UTC NOAA

KWWR 261755Z AUTO 25022G28KT 10SM CLR 26/00 A2975 RMK AO2


Station Type Date Time Source
KWWR Decoded METAR 2024/02/26 17:55 UTC NOAA

Woodward, West Woodward Airport, OK, United States (KWWR) 36-26-12N 099-31-16W 667M
Feb 26, 2024 - 12:55 PM EST / 2024.02.26 1755 UTC
Wind: from the WSW (250 degrees) at 25 MPH (22 KT) gusting to 32 MPH (28 KT):0
Visibility: 10 mile(s):0
Sky conditions: clear
Temperature: 78 F (26 C)
Dew Point: 32 F (0 C)
Relative Humidity: 18%
Pressure (altimeter): 29.75 in. Hg (1007 hPa)
ob: KWWR 261755Z AUTO 25022G28KT 10SM CLR 26/00 A2975 RMK AO2
cycle: 18

Station Type Date Time Source
KWWR TAF 2024/02/26 18:34 UTC NOAA